createdAt,value
2022-08-17T00:00:42.878Z,5.82
2022-08-17T00:03:10.915Z,5.43
2022-08-17T00:05:45.036Z,6.05
2022-08-17T00:08:14.841Z,6.07
2022-08-17T00:10:44.041Z,5.95
2022-08-17T00:13:16.053Z,5.57
2022-08-17T00:15:44.935Z,5.72
2022-08-17T00:19:01.244Z,6.15
2022-08-17T00:21:10.558Z,4.93
2022-08-17T00:23:46.231Z,5.20
2022-08-17T00:26:43.503Z,6.65
2022-08-17T00:29:08.404Z,5.10
2022-08-17T00:31:38.163Z,5.38
2022-08-17T00:34:10.142Z,5.43
2022-08-17T00:36:38.691Z,5.85
2022-08-17T00:39:06.818Z,5.65
2022-08-17T00:41:35.958Z,6.18
2022-08-17T00:44:09.804Z,6.35
2022-08-17T00:46:41.092Z,6.20
2022-08-17T00:49:12.496Z,5.47
2022-08-17T00:51:44.220Z,6.43
2022-08-17T00:54:16.175Z,5.95
2022-08-17T00:56:47.732Z,6.40
2022-08-17T00:59:21.126Z,5.03
2022-08-17T01:01:51.391Z,5.28
2022-08-17T01:04:22.755Z,5.90
2022-08-17T01:06:52.308Z,5.95
2022-08-17T01:09:21.501Z,6.40
2022-08-17T01:11:52.857Z,6.00
2022-08-17T01:14:21.703Z,6.50
2022-08-17T01:16:51.717Z,6.50
2022-08-17T01:19:24.634Z,5.68
2022-08-17T01:22:00.490Z,6.13
2022-08-17T01:24:31.233Z,6.20
2022-08-17T01:27:01.978Z,6.13
2022-08-17T01:29:32.782Z,5.20
2022-08-17T01:32:04.857Z,5.57
2022-08-17T01:34:42.352Z,6.40
2022-08-17T01:37:11.644Z,6.40
2022-08-17T01:39:45.061Z,6.22
2022-08-17T01:42:30.654Z,5.78
2022-08-17T01:45:03.243Z,7.07
2022-08-17T01:47:31.879Z,6.00
2022-08-17T01:50:10.757Z,6.93
2022-08-17T01:52:39.494Z,5.90
2022-08-17T01:55:10.214Z,6.43
2022-08-17T01:57:38.549Z,6.65
2022-08-17T02:00:10.233Z,6.38
2022-08-17T02:02:39.190Z,5.90
2022-08-17T02:05:08.720Z,6.40
2022-08-17T02:07:59.393Z,6.82
2022-08-17T02:10:34.109Z,6.72
2022-08-17T02:13:03.111Z,6.25
2022-08-17T02:15:32.167Z,6.13
2022-08-17T02:18:00.713Z,6.20
2022-08-17T02:20:41.501Z,6.95
2022-08-17T02:23:13.000Z,5.55
2022-08-17T02:25:45.280Z,6.25
2022-08-17T02:28:13.696Z,5.78
2022-08-17T02:30:59.851Z,6.55
2022-08-17T02:33:43.238Z,6.38
2022-08-17T02:36:13.957Z,6.32
2022-08-17T02:38:42.806Z,6.50
2022-08-17T02:41:12.724Z,6.57
2022-08-17T02:43:40.908Z,6.18
2022-08-17T02:46:09.548Z,6.00
2022-08-17T02:48:37.713Z,6.18
2022-08-17T02:51:05.879Z,5.93
2022-08-17T02:53:35.873Z,7.13
2022-08-17T02:56:04.990Z,6.10
2022-08-17T02:58:36.064Z,6.35
2022-08-17T03:01:05.258Z,6.72
2022-08-17T03:03:33.495Z,6.35
2022-08-17T03:06:02.474Z,7.15
2022-08-17T03:08:31.643Z,6.45
2022-08-17T03:10:59.764Z,6.38
2022-08-17T03:13:28.390Z,7.70
2022-08-17T03:15:57.974Z,6.25
2022-08-17T03:18:27.975Z,6.50
2022-08-17T03:20:59.141Z,7.38
2022-08-17T03:23:29.587Z,6.32
2022-08-17T03:25:59.403Z,6.10
2022-08-17T03:28:28.307Z,6.15
2022-08-17T03:30:58.130Z,6.50
2022-08-17T03:33:26.912Z,7.20
2022-08-17T03:35:56.159Z,7.47
2022-08-17T03:38:24.835Z,6.40
2022-08-17T03:40:59.409Z,6.25
2022-08-17T03:43:30.037Z,6.40
2022-08-17T03:46:27.724Z,7.50
2022-08-17T03:49:15.677Z,6.75
2022-08-17T03:52:01.586Z,7.70
2022-08-17T03:54:47.088Z,7.70
2022-08-17T03:57:15.221Z,7.75
2022-08-17T03:59:45.008Z,7.15
2022-08-17T04:02:20.847Z,7.20
2022-08-17T04:04:51.339Z,7.80
2022-08-17T04:07:20.557Z,6.85
2022-08-17T04:09:49.166Z,6.53
2022-08-17T04:12:18.767Z,6.53
2022-08-17T04:14:51.646Z,7.00
2022-08-17T04:17:25.262Z,6.95
2022-08-17T04:19:54.235Z,6.93
2022-08-17T04:22:30.753Z,6.95
2022-08-17T04:25:05.572Z,7.78
2022-08-17T04:27:33.797Z,7.55
2022-08-17T04:30:02.070Z,6.88
2022-08-17T04:33:00.802Z,7.15
2022-08-17T04:35:23.895Z,7.90
2022-08-17T04:37:52.379Z,8.30
2022-08-17T04:40:40.677Z,8.07
2022-08-17T04:43:11.094Z,6.75
2022-08-17T04:45:55.251Z,7.10
2022-08-17T04:48:35.517Z,6.78
2022-08-17T04:51:10.080Z,6.05
2022-08-17T04:53:39.603Z,7.00
2022-08-17T04:56:16.104Z,7.20
2022-08-17T04:58:46.282Z,7.30
2022-08-17T05:01:14.708Z,6.60
2022-08-17T05:03:45.114Z,7.00
2022-08-17T05:06:13.421Z,6.57
2022-08-17T05:08:41.846Z,6.93
2022-08-17T05:11:10.301Z,7.50
2022-08-17T05:13:38.447Z,6.60
2022-08-17T05:16:07.086Z,7.40
2022-08-17T05:18:35.168Z,7.80
2022-08-17T05:21:04.806Z,7.15
2022-08-17T05:23:41.728Z,5.95
2022-08-17T05:26:25.937Z,6.63
2022-08-17T05:28:57.274Z,6.60
2022-08-17T05:31:54.639Z,7.25
2022-08-17T05:34:23.505Z,7.10
2022-08-17T05:36:52.932Z,7.35
2022-08-17T05:39:21.263Z,6.82
2022-08-17T05:41:49.416Z,8.02
2022-08-17T05:44:18.190Z,6.75
2022-08-17T05:46:50.115Z,6.85
2022-08-17T05:49:27.180Z,6.22
2022-08-17T05:52:24.027Z,6.93
2022-08-17T05:55:04.145Z,6.45
2022-08-17T05:57:47.447Z,6.82
2022-08-17T06:00:26.472Z,6.63
2022-08-17T06:03:18.513Z,7.57
2022-08-17T06:05:59.514Z,7.55
2022-08-17T06:08:39.684Z,8.10
2022-08-17T06:11:19.861Z,7.35
2022-08-17T06:14:05.215Z,7.60
2022-08-17T06:16:39.147Z,9.00
2022-08-17T06:19:14.288Z,6.63
2022-08-17T06:21:45.416Z,6.68
2022-08-17T06:24:25.753Z,5.65
2022-08-17T06:26:56.218Z,6.03
2022-08-17T06:29:37.191Z,6.80
2022-08-17T06:32:08.959Z,6.13
2022-08-17T06:34:38.845Z,6.40
2022-08-17T06:37:18.809Z,5.93
2022-08-17T06:39:56.670Z,5.70
2022-08-17T06:43:05.515Z,5.60
2022-08-17T06:45:32.419Z,5.22
2022-08-17T06:48:06.877Z,4.97
2022-08-17T06:50:36.949Z,4.57
2022-08-17T06:53:08.745Z,4.43
2022-08-17T06:55:46.592Z,4.63
2022-08-17T06:58:16.905Z,4.50
2022-08-17T07:00:47.570Z,4.30
2022-08-17T07:03:24.104Z,4.73
2022-08-17T07:05:55.477Z,4.40
2022-08-17T07:08:35.035Z,4.20
2022-08-17T07:11:09.736Z,4.13
2022-08-17T07:13:51.057Z,3.97
2022-08-17T07:16:25.873Z,4.93
2022-08-17T07:18:55.513Z,4.37
2022-08-17T07:21:40.830Z,4.87
2022-08-17T07:24:26.296Z,4.47
2022-08-17T07:27:09.390Z,4.40
2022-08-17T07:29:44.190Z,4.30
2022-08-17T07:32:18.634Z,4.70
2022-08-17T07:35:11.364Z,4.60
2022-08-17T07:37:40.971Z,4.50
2022-08-17T07:40:22.025Z,5.43
2022-08-17T07:43:26.291Z,5.10
2022-08-17T07:46:30.061Z,5.60
2022-08-17T07:49:16.879Z,4.93
2022-08-17T07:52:00.003Z,4.57
2022-08-17T07:54:48.332Z,5.13
2022-08-17T07:57:40.613Z,5.10
2022-08-17T08:00:19.719Z,6.27
2022-08-17T08:03:04.353Z,4.87
2022-08-17T08:05:49.861Z,5.50
2022-08-17T08:08:27.506Z,5.43
2022-08-17T08:11:02.155Z,6.23
2022-08-17T08:13:32.184Z,5.70
2022-08-17T08:16:24.503Z,6.33
2022-08-17T08:18:57.622Z,5.03
2022-08-17T08:21:36.362Z,4.90
2022-08-17T08:24:31.329Z,4.20
2022-08-17T08:27:09.164Z,4.90
2022-08-17T08:29:48.716Z,5.30
2022-08-17T08:32:22.005Z,3.37
2022-08-17T08:35:06.500Z,3.87
2022-08-17T08:37:44.486Z,3.90
2022-08-17T08:40:29.865Z,4.40
2022-08-17T08:43:08.348Z,5.00
2022-08-17T08:45:45.563Z,5.10
2022-08-17T08:48:53.271Z,4.63
2022-08-17T08:51:21.144Z,4.50
2022-08-17T08:54:02.353Z,4.10
2022-08-17T08:56:37.735Z,5.77
2022-08-17T08:59:14.921Z,4.60
2022-08-17T09:01:52.864Z,3.70
2022-08-17T09:05:10.266Z,4.00
2022-08-17T09:07:44.760Z,3.60
2022-08-17T09:10:22.699Z,4.37
2022-08-17T09:13:09.317Z,4.63
2022-08-17T09:15:43.486Z,3.93
2022-08-17T09:19:01.132Z,3.83
2022-08-17T09:21:11.192Z,3.90
2022-08-17T09:23:49.421Z,4.30
2022-08-17T09:26:22.973Z,3.73
2022-08-17T09:28:54.933Z,3.97
2022-08-17T09:31:33.118Z,4.40
2022-08-17T09:34:34.459Z,4.47
2022-08-17T09:37:12.522Z,4.20
2022-08-17T09:39:47.345Z,4.23
2022-08-17T09:42:22.762Z,3.80
2022-08-17T09:45:10.675Z,3.40
2022-08-17T09:47:45.760Z,3.70
2022-08-17T09:51:04.456Z,3.70
2022-08-17T09:53:10.419Z,3.93
2022-08-17T09:56:02.785Z,4.47
2022-08-17T09:58:41.721Z,4.80
2022-08-17T10:01:23.649Z,4.03
2022-08-17T10:04:20.388Z,3.53
2022-08-17T10:06:54.230Z,4.30
2022-08-17T10:09:34.100Z,4.20
2022-08-17T10:12:21.466Z,4.43
2022-08-17T10:15:07.898Z,4.00
2022-08-17T10:17:43.980Z,4.00
2022-08-17T10:20:18.168Z,3.90
2022-08-17T10:23:08.748Z,4.40
2022-08-17T10:26:12.336Z,4.33
2022-08-17T10:28:48.902Z,4.97
2022-08-17T10:31:48.418Z,4.23
2022-08-17T10:34:40.423Z,4.97
2022-08-17T10:37:28.348Z,4.20
2022-08-17T10:40:07.378Z,3.57
2022-08-17T10:42:45.749Z,4.50
2022-08-17T10:45:20.824Z,4.00
2022-08-17T10:48:05.354Z,3.63
2022-08-17T10:51:00.106Z,4.30
2022-08-17T10:53:58.206Z,3.80
2022-08-17T10:56:42.197Z,4.17
2022-08-17T10:59:10.253Z,4.00
2022-08-17T11:02:05.239Z,4.47
2022-08-17T11:04:53.790Z,3.67
2022-08-17T11:07:38.507Z,3.83
2022-08-17T11:10:21.644Z,4.17
2022-08-17T11:13:01.105Z,3.60
2022-08-17T11:15:51.633Z,3.90
2022-08-17T11:18:38.496Z,4.10
2022-08-17T11:21:20.405Z,3.67
2022-08-17T11:24:11.381Z,3.70
2022-08-17T11:26:46.501Z,3.73
2022-08-17T11:29:21.805Z,4.37
2022-08-17T11:32:05.958Z,4.07
2022-08-17T11:34:36.523Z,4.80
2022-08-17T11:37:31.803Z,4.53
2022-08-17T11:40:16.019Z,4.20
2022-08-17T11:42:59.985Z,4.20
2022-08-17T11:45:47.869Z,4.73
2022-08-17T11:48:40.773Z,4.23
2022-08-17T11:51:32.399Z,3.70
2022-08-17T11:54:34.908Z,4.40
2022-08-17T11:56:53.783Z,3.90
2022-08-17T11:59:58.582Z,4.17
2022-08-17T12:02:35.110Z,4.23
2022-08-17T12:05:27.370Z,3.63
2022-08-17T12:08:07.943Z,3.50
2022-08-17T12:10:40.876Z,3.60
2022-08-17T12:13:17.421Z,3.63
2022-08-17T12:15:49.730Z,4.13
2022-08-17T12:18:23.121Z,3.80
2022-08-17T12:21:08.224Z,4.00
2022-08-17T12:23:44.276Z,4.00
2022-08-17T12:26:19.477Z,3.93
2022-08-17T12:28:49.755Z,3.87
2022-08-17T12:31:47.457Z,4.10
2022-08-17T12:34:19.993Z,4.50
2022-08-17T12:36:51.006Z,4.33
2022-08-17T12:39:22.841Z,4.23
2022-08-17T12:42:01.955Z,4.87
2022-08-17T12:44:32.594Z,4.23
2022-08-17T12:47:04.834Z,4.07
2022-08-17T12:49:35.249Z,4.17
2022-08-17T12:52:08.611Z,4.63
2022-08-17T12:54:48.048Z,3.83
2022-08-17T12:57:18.903Z,3.93
2022-08-17T12:59:50.961Z,4.47
2022-08-17T13:02:44.141Z,4.17
2022-08-17T13:05:24.076Z,3.70
2022-08-17T13:07:53.184Z,4.10
2022-08-17T13:10:31.586Z,3.80
2022-08-17T13:13:05.099Z,3.97
2022-08-17T13:15:44.805Z,3.67
2022-08-17T13:18:39.444Z,4.00
2022-08-17T13:21:13.813Z,4.07
2022-08-17T13:23:44.792Z,4.80
2022-08-17T13:26:29.510Z,4.53
2022-08-17T13:28:58.140Z,4.87
2022-08-17T13:31:56.653Z,4.23
2022-08-17T13:35:02.146Z,4.27
2022-08-17T13:37:30.135Z,3.60
2022-08-17T13:40:19.209Z,3.90
2022-08-17T13:42:52.545Z,3.93
2022-08-17T13:45:50.502Z,3.97
2022-08-17T13:48:28.227Z,4.03
2022-08-17T13:51:16.292Z,3.93
2022-08-17T13:53:57.757Z,4.37
2022-08-17T13:56:39.175Z,4.20
2022-08-17T13:59:12.309Z,4.87
2022-08-17T14:01:42.378Z,4.33
2022-08-17T14:04:13.300Z,4.30
2022-08-17T14:06:54.055Z,3.90
2022-08-17T14:09:25.106Z,4.23
2022-08-17T14:11:55.437Z,4.37
2022-08-17T14:14:25.165Z,3.97
2022-08-17T14:16:53.767Z,4.40
2022-08-17T14:19:22.812Z,4.10
2022-08-17T14:21:51.016Z,3.90
2022-08-17T14:24:23.317Z,5.37
2022-08-17T14:26:52.933Z,4.37
2022-08-17T14:29:21.217Z,4.00
2022-08-17T14:31:54.435Z,4.53
2022-08-17T14:34:23.909Z,3.40
2022-08-17T14:36:52.405Z,3.60
2022-08-17T14:39:20.994Z,4.93
2022-08-17T14:41:49.089Z,3.93
2022-08-17T14:44:17.534Z,3.80
2022-08-17T14:46:46.130Z,4.07
2022-08-17T14:49:16.104Z,4.40
2022-08-17T14:51:44.639Z,3.80
2022-08-17T14:54:32.714Z,4.47
2022-08-17T14:57:04.718Z,4.33
2022-08-17T14:59:53.225Z,4.27
2022-08-17T15:02:29.314Z,4.50
2022-08-17T15:05:05.079Z,3.80
2022-08-17T15:07:33.247Z,4.33
2022-08-17T15:10:02.098Z,4.67
2022-08-17T15:12:34.338Z,4.07
2022-08-17T15:15:04.755Z,4.47
2022-08-17T15:17:44.781Z,4.60
2022-08-17T15:20:27.672Z,4.00
2022-08-17T15:22:57.373Z,4.10
2022-08-17T15:25:26.575Z,3.47
2022-08-17T15:27:55.706Z,4.20
2022-08-17T15:30:24.399Z,3.77
2022-08-17T15:32:55.340Z,4.40
2022-08-17T15:35:28.948Z,4.13
2022-08-17T15:38:06.494Z,3.83
2022-08-17T15:40:36.875Z,4.20
2022-08-17T15:43:07.964Z,4.00
2022-08-17T15:45:35.961Z,4.10
2022-08-17T15:48:04.486Z,3.83
2022-08-17T15:50:33.870Z,4.10
2022-08-17T15:53:03.551Z,4.00
2022-08-17T15:55:34.258Z,4.17
2022-08-17T15:58:02.223Z,4.00
2022-08-17T16:00:30.476Z,4.17
2022-08-17T16:03:45.180Z,4.40
2022-08-17T16:05:52.888Z,3.70
2022-08-17T16:08:21.496Z,4.60
2022-08-17T16:10:50.223Z,3.80
2022-08-17T16:13:19.290Z,3.80
2022-08-17T16:15:56.226Z,3.70
2022-08-17T16:18:30.738Z,4.47
2022-08-17T16:21:21.428Z,3.63
2022-08-17T16:23:51.344Z,3.73
2022-08-17T16:26:19.816Z,3.97
2022-08-17T16:28:48.317Z,4.33
2022-08-17T16:31:17.151Z,3.70
2022-08-17T16:34:16.110Z,4.20
2022-08-17T16:36:35.351Z,4.63
2022-08-17T16:39:03.218Z,4.40
2022-08-17T16:41:46.421Z,4.57
2022-08-17T16:44:15.860Z,3.97
2022-08-17T16:46:45.994Z,4.17
2022-08-17T16:49:31.952Z,4.00
2022-08-17T16:52:05.205Z,4.10
2022-08-17T16:54:35.505Z,3.70
2022-08-17T16:57:05.056Z,4.57
2022-08-17T16:59:40.280Z,3.83
2022-08-17T17:02:11.447Z,3.37
2022-08-17T17:04:45.145Z,4.20
2022-08-17T17:07:41.027Z,4.13
2022-08-17T17:10:13.645Z,4.00
2022-08-17T17:13:02.330Z,3.40
2022-08-17T17:15:41.429Z,3.70
2022-08-17T17:18:14.743Z,3.80
2022-08-17T17:20:48.569Z,3.90
2022-08-17T17:23:31.174Z,3.83
2022-08-17T17:26:08.615Z,4.17
2022-08-17T17:28:43.470Z,4.00
2022-08-17T17:31:41.212Z,3.73
2022-08-17T17:34:13.722Z,4.90
2022-08-17T17:36:47.059Z,5.77
2022-08-17T17:39:20.060Z,5.23
2022-08-17T17:41:52.256Z,4.90
2022-08-17T17:44:25.732Z,4.03
2022-08-17T17:46:57.087Z,4.73
2022-08-17T17:49:27.049Z,4.27
2022-08-17T17:52:11.118Z,5.00
2022-08-17T17:54:54.008Z,4.10
2022-08-17T17:57:33.828Z,4.03
2022-08-17T18:00:09.190Z,4.10
2022-08-17T18:02:52.589Z,4.53
2022-08-17T18:05:35.877Z,4.93
2022-08-17T18:08:33.793Z,4.47
2022-08-17T18:11:24.023Z,4.50
2022-08-17T18:14:10.699Z,5.87
2022-08-17T18:16:42.725Z,5.40
2022-08-17T18:19:14.091Z,5.43
2022-08-17T18:21:44.717Z,4.90
2022-08-17T18:24:13.833Z,4.87
2022-08-17T18:26:47.905Z,4.80
2022-08-17T18:29:32.150Z,4.70
2022-08-17T18:32:26.091Z,4.47
2022-08-17T18:34:58.084Z,4.67
2022-08-17T18:37:35.767Z,4.77
2022-08-17T18:40:26.937Z,5.00
2022-08-17T18:43:07.719Z,4.63
2022-08-17T18:45:40.887Z,5.23
2022-08-17T18:48:20.780Z,4.20
2022-08-17T18:50:48.728Z,5.10
2022-08-17T18:53:33.537Z,4.90
2022-08-17T18:56:30.859Z,5.80
2022-08-17T18:59:10.865Z,4.63
2022-08-17T19:01:53.466Z,5.00
2022-08-17T19:04:36.124Z,4.60
2022-08-17T19:07:08.212Z,4.83
2022-08-17T19:09:41.328Z,5.20
2022-08-17T19:12:27.214Z,5.20
2022-08-17T19:14:58.405Z,5.30
2022-08-17T19:17:35.348Z,4.97
2022-08-17T19:20:11.521Z,5.30
2022-08-17T19:22:55.029Z,5.17
2022-08-17T19:25:27.240Z,4.63
2022-08-17T19:28:00.646Z,5.70
2022-08-17T19:30:32.776Z,5.55
2022-08-17T19:33:03.643Z,5.93
2022-08-17T19:35:42.059Z,5.22
2022-08-17T19:38:18.396Z,5.50
2022-08-17T19:41:00.193Z,5.50
2022-08-17T19:43:40.256Z,5.30
2022-08-17T19:46:19.837Z,5.10
2022-08-17T19:48:53.520Z,5.53
2022-08-17T19:51:31.333Z,5.60
2022-08-17T19:54:06.932Z,5.30
2022-08-17T19:56:42.419Z,5.88
2022-08-17T19:59:16.677Z,5.78
2022-08-17T20:01:51.040Z,5.57
2022-08-17T20:04:32.488Z,5.93
2022-08-17T20:07:04.318Z,6.15
2022-08-17T20:09:37.877Z,5.75
2022-08-17T20:12:10.196Z,5.88
2022-08-17T20:14:53.593Z,5.47
2022-08-17T20:17:28.387Z,6.53
2022-08-17T20:20:02.574Z,5.95
2022-08-17T20:22:36.797Z,5.45
2022-08-17T20:25:30.533Z,5.65
2022-08-17T20:28:05.734Z,5.68
2022-08-17T20:30:38.370Z,4.90
2022-08-17T20:33:23.223Z,6.10
2022-08-17T20:36:03.561Z,5.43
2022-08-17T20:38:42.266Z,5.80
2022-08-17T20:41:14.427Z,6.15
2022-08-17T20:43:48.956Z,6.22
2022-08-17T20:46:31.613Z,6.38
2022-08-17T20:49:16.961Z,5.90
2022-08-17T20:52:01.726Z,5.80
2022-08-17T20:54:44.511Z,5.72
2022-08-17T20:57:51.354Z,5.40
2022-08-17T21:00:45.821Z,5.63
2022-08-17T21:03:51.139Z,5.88
2022-08-17T21:06:26.299Z,6.25
2022-08-17T21:08:58.644Z,6.47
2022-08-17T21:12:03.503Z,5.93
2022-08-17T21:14:59.850Z,6.00
2022-08-17T21:17:41.840Z,6.10
2022-08-17T21:20:25.313Z,5.78
2022-08-17T21:23:08.824Z,6.55
2022-08-17T21:25:58.394Z,6.25
2022-08-17T21:29:00.396Z,6.55
2022-08-17T21:31:37.511Z,5.88
2022-08-17T21:34:31.339Z,6.63
2022-08-17T21:37:29.750Z,5.90
2022-08-17T21:40:02.907Z,5.68
2022-08-17T21:42:34.642Z,7.18
2022-08-17T21:45:10.851Z,7.28
2022-08-17T21:47:47.729Z,6.50
2022-08-17T21:50:21.651Z,6.65
2022-08-17T21:52:54.580Z,6.97
2022-08-17T21:55:28.907Z,7.05
2022-08-17T21:58:11.381Z,7.70
2022-08-17T22:00:45.016Z,6.97
2022-08-17T22:03:24.623Z,7.50
2022-08-17T22:05:52.463Z,7.63
2022-08-17T22:08:23.602Z,8.68
2022-08-17T22:11:01.700Z,7.53
2022-08-17T22:13:30.145Z,7.55
2022-08-17T22:16:27.840Z,8.45
2022-08-17T22:18:58.714Z,9.13
2022-08-17T22:21:27.167Z,8.18
2022-08-17T22:24:03.985Z,8.00
2022-08-17T22:27:08.523Z,8.05
2022-08-17T22:29:54.292Z,8.90
2022-08-17T22:32:39.546Z,9.50
2022-08-17T22:35:32.618Z,8.60
2022-08-17T22:38:32.046Z,7.50
2022-08-17T22:41:27.204Z,8.73
2022-08-17T22:43:57.712Z,8.70
2022-08-17T22:46:26.659Z,8.27
2022-08-17T22:48:57.870Z,8.05
2022-08-17T22:51:29.634Z,9.02
2022-08-17T22:54:18.573Z,9.05
2022-08-17T22:57:14.288Z,9.18
2022-08-17T22:59:50.900Z,8.57
2022-08-17T23:02:25.561Z,9.05
2022-08-17T23:04:57.346Z,8.73
2022-08-17T23:07:25.162Z,9.25
2022-08-17T23:09:55.051Z,8.20
2022-08-17T23:12:27.497Z,9.18
2022-08-17T23:15:01.653Z,9.15
2022-08-17T23:17:37.131Z,9.15
2022-08-17T23:20:08.251Z,8.10
2022-08-17T23:22:38.243Z,8.90
2022-08-17T23:25:28.250Z,8.60
2022-08-17T23:27:57.423Z,8.18
2022-08-17T23:30:28.495Z,8.50
2022-08-17T23:33:02.263Z,7.88
2022-08-17T23:35:40.578Z,8.25
2022-08-17T23:38:10.040Z,7.45
2022-08-17T23:40:39.422Z,7.68
2022-08-17T23:43:23.536Z,7.53
2022-08-17T23:45:55.009Z,7.97
2022-08-17T23:48:36.290Z,7.22
2022-08-17T23:51:09.407Z,6.70
2022-08-17T23:53:40.402Z,6.85
2022-08-17T23:56:11.257Z,7.20
2022-08-17T23:58:42.240Z,7.13
